CCGS Limnos — CG2350 — position and weather

sailwx.info

Track history (hours):
 
Tides and Currents Weather Stations Pressure Air Temp Water Temp Dewpoint Dewpoint Depression Visibility Wind Speed Wind Dir Waves Ship Positions

Oceanographic research ship CCGS Limnos (Canada)

Detailed information on ship capabilities available from University of Delaware's Ocean Information Center.

Last reported at 2019-Dec-19 20:59 UTC. Time now 2020-Jan-24 04:24 UTC.
Position N 42°03' W 083°08'.
Warning: this ship's position is 35 days out of date.

Length 44.81 m; beam 9.75 m; draft 2.6 m.

Type: SAR. MMSI: 316001434.

Date/timePositionNaut miles runAvg speedWind from/ knotsBaromVisibWave heightAir tempDewpointWater temp
2019-Dec-19 20:59N 42°03' W 083°08'5 9.9
2019-Dec-19 20:27N 42°09' W 083°07'5 0.2
2019-Dec-18 15:57N 42°03' W 083°08'1 2.3
2019-Dec-18 15:29N 42°02' W 083°08'26 1.4
2019-Dec-17 21:30N 42°24' W 082°50'10 9.7
2019-Dec-17 20:29N 42°31' W 082°41'13 0.8
2019-Dec-17 03:30N 42°22' W 082°53'9 1.6
2019-Dec-16 22:00N 42°19' W 083°04'2 1.2
2019-Dec-16 20:00N 42°20' W 083°01'13 1.9
2019-Dec-16 13:03N 42°07' W 083°07'30 1.7
2019-Dec-15 19:52N 42°30' W 082°41'0 0.0
2019-Dec-15 16:42N 42°30' W 082°41'0 0.0
2019-Dec-15 02:54N 42°30' W 082°41'0 0.0
2019-Dec-15 00:45N 42°30' W 082°41'0 0.0
2019-Dec-14 23:06N 42°30' W 082°41'0 0.0
2019-Dec-14 17:30N 42°30' W 082°41'0 0.0
2019-Dec-14 15:30N 42°30' W 082°41'0 0.0
2019-Dec-14 14:57N 42°30' W 082°41'0 0.0
2019-Dec-14 12:30N 42°30' W 082°41'0 0.0
2019-Dec-14 10:24N 42°30' W 082°41'0 0.0
2019-Dec-14 06:36N 42°30' W 082°41'0 0.0
2019-Dec-14 06:06N 42°30' W 082°41'0 0.0
2019-Dec-14 06:00N 42°30' W 082°41'0 0.0
2019-Dec-14 04:54N 42°30' W 082°41'0 0.0
2019-Dec-14 04:30N 42°30' W 082°41'0 0.0
2019-Dec-14 03:30N 42°30' W 082°41'0 0.0
2019-Dec-14 02:57N 42°30' W 082°41'0 0.0
2019-Dec-14 01:30N 42°30' W 082°41'0 0.0
2019-Dec-13 23:27N 42°30' W 082°41'0 0.0
2019-Dec-13 22:24N 42°30' W 082°41'0 0.0
2019-Dec-13 18:30N 42°30' W 082°41'0 0.0
2019-Dec-13 17:00N 42°30' W 082°41'0 0.0
2019-Dec-13 15:51N 42°30' W 082°41'0 0.0
2019-Dec-13 13:00N 42°30' W 082°41'0 0.0
2019-Dec-13 08:30N 42°30' W 082°41'0 0.0
2019-Dec-13 06:57N 42°30' W 082°41'0 0.0
2019-Dec-13 06:27N 42°30' W 082°41'0 0.0
2019-Dec-13 05:51N 42°30' W 082°41'0 0.0
2019-Dec-13 04:03N 42°30' W 082°41'  
2019-Dec-10 16:28N 42°22' W 082°53'14 7.3
2019-Dec-10 14:31N 42°13' W 083°08'  
Track history (hours):
 
Tides and Currents Weather Stations Pressure Air Temp Water Temp Dewpoint Dewpoint Depression Visibility Wind Speed Wind Dir Waves Ship Positions

Oceanographic research ship CCGS Limnos (Canada)

Detailed information on ship capabilities available from University of Delaware's Ocean Information Center.

Last reported at 2019-Dec-19 20:59 UTC. Time now 2020-Jan-24 04:24 UTC.
Position N 42°03' W 083°08'.
Warning: this ship's position is 35 days out of date.

Length 44.81 m; beam 9.75 m; draft 2.6 m.

Type: SAR. MMSI: 316001434.

Date/timePositionNaut miles runAvg speedWind from/ knotsBaromVisibWave heightAir tempDewpointWater temp
2019-Dec-19 20:59N 42°03' W 083°08'5 9.9
2019-Dec-19 20:27N 42°09' W 083°07'5 0.2
2019-Dec-18 15:57N 42°03' W 083°08'1 2.3
2019-Dec-18 15:29N 42°02' W 083°08'26 1.4
2019-Dec-17 21:30N 42°24' W 082°50'10 9.7
2019-Dec-17 20:29N 42°31' W 082°41'13 0.8
2019-Dec-17 03:30N 42°22' W 082°53'9 1.6
2019-Dec-16 22:00N 42°19' W 083°04'2 1.2
2019-Dec-16 20:00N 42°20' W 083°01'13 1.9
2019-Dec-16 13:03N 42°07' W 083°07'30 1.7
2019-Dec-15 19:52N 42°30' W 082°41'0 0.0
2019-Dec-15 16:42N 42°30' W 082°41'0 0.0
2019-Dec-15 02:54N 42°30' W 082°41'0 0.0
2019-Dec-15 00:45N 42°30' W 082°41'0 0.0
2019-Dec-14 23:06N 42°30' W 082°41'0 0.0
2019-Dec-14 17:30N 42°30' W 082°41'0 0.0
2019-Dec-14 15:30N 42°30' W 082°41'0 0.0
2019-Dec-14 14:57N 42°30' W 082°41'0 0.0
2019-Dec-14 12:30N 42°30' W 082°41'0 0.0
2019-Dec-14 10:24N 42°30' W 082°41'0 0.0
2019-Dec-14 06:36N 42°30' W 082°41'0 0.0
2019-Dec-14 06:06N 42°30' W 082°41'0 0.0
2019-Dec-14 06:00N 42°30' W 082°41'0 0.0
2019-Dec-14 04:54N 42°30' W 082°41'0 0.0
2019-Dec-14 04:30N 42°30' W 082°41'0 0.0
2019-Dec-14 03:30N 42°30' W 082°41'0 0.0
2019-Dec-14 02:57N 42°30' W 082°41'0 0.0
2019-Dec-14 01:30N 42°30' W 082°41'0 0.0
2019-Dec-13 23:27N 42°30' W 082°41'0 0.0
2019-Dec-13 22:24N 42°30' W 082°41'0 0.0
2019-Dec-13 18:30N 42°30' W 082°41'0 0.0
2019-Dec-13 17:00N 42°30' W 082°41'0 0.0
2019-Dec-13 15:51N 42°30' W 082°41'0 0.0
2019-Dec-13 13:00N 42°30' W 082°41'0 0.0
2019-Dec-13 08:30N 42°30' W 082°41'0 0.0
2019-Dec-13 06:57N 42°30' W 082°41'0 0.0
2019-Dec-13 06:27N 42°30' W 082°41'0 0.0
2019-Dec-13 05:51N 42°30' W 082°41'0 0.0
2019-Dec-13 04:03N 42°30' W 082°41'  
2019-Dec-10 16:28N 42°22' W 082°53'14 7.3
2019-Dec-10 14:31N 42°13' W 083°08'  

Dump ship's entire track history